sensor_id;sensor_type;location;lat;lon;timestamp;temperature;humidity
19037;DHT22;9651;49.138;8.900;2023-04-08T00:02:43;8.40;99.90
19037;DHT22;9651;49.138;8.900;2023-04-08T00:06:45;8.30;99.90
19037;DHT22;9651;49.138;8.900;2023-04-08T00:10:47;8.30;99.90
19037;DHT22;9651;49.138;8.900;2023-04-08T00:14:50;8.20;99.90
19037;DHT22;9651;49.138;8.900;2023-04-08T00:18:52;8.30;99.90
19037;DHT22;9651;49.138;8.900;2023-04-08T00:22:54;8.30;99.90
19037;DHT22;9651;49.138;8.900;2023-04-08T00:26:56;8.20;99.90
19037;DHT22;9651;49.138;8.900;2023-04-08T00:30:59;8.20;99.90
19037;DHT22;9651;49.138;8.900;2023-04-08T00:35:01;8.00;99.90
19037;DHT22;9651;49.138;8.900;2023-04-08T00:39:04;8.00;99.90
19037;DHT22;9651;49.138;8.900;2023-04-08T00:43:06;7.90;99.90
19037;DHT22;9651;49.138;8.900;2023-04-08T00:47:13;7.80;99.90
19037;DHT22;9651;49.138;8.900;2023-04-08T00:51:15;7.80;99.90
19037;DHT22;9651;49.138;8.900;2023-04-08T00:55:17;7.80;99.90
19037;DHT22;9651;49.138;8.900;2023-04-08T00:59:19;7.80;99.90
19037;DHT22;9651;49.138;8.900;2023-04-08T01:03:28;7.90;99.90
19037;DHT22;9651;49.138;8.900;2023-04-08T01:07:34;7.90;99.90
19037;DHT22;9651;49.138;8.900;2023-04-08T01:11:42;8.00;99.90
19037;DHT22;9651;49.138;8.900;2023-04-08T01:15:45;7.90;99.90
19037;DHT22;9651;49.138;8.900;2023-04-08T01:19:49;7.90;99.90
19037;DHT22;9651;49.138;8.900;2023-04-08T01:23:58;7.90;99.90
19037;DHT22;9651;49.138;8.900;2023-04-08T01:28:06;7.90;99.90
19037;DHT22;9651;49.138;8.900;2023-04-08T01:32:09;8.00;99.90
19037;DHT22;9651;49.138;8.900;2023-04-08T01:36:12;8.00;99.90
19037;DHT22;9651;49.138;8.900;2023-04-08T01:40:15;8.00;99.90
19037;DHT22;9651;49.138;8.900;2023-04-08T01:44:20;8.00;99.90
19037;DHT22;9651;49.138;8.900;2023-04-08T01:48:25;8.10;99.90
19037;DHT22;9651;49.138;8.900;2023-04-08T01:52:28;8.10;99.90
19037;DHT22;9651;49.138;8.900;2023-04-08T01:56:32;8.00;99.90
19037;DHT22;9651;49.138;8.900;2023-04-08T02:00:40;7.90;99.90
19037;DHT22;9651;49.138;8.900;2023-04-08T02:04:43;7.90;99.90
19037;DHT22;9651;49.138;8.900;2023-04-08T02:08:44;7.90;99.90
19037;DHT22;9651;49.138;8.900;2023-04-08T02:12:47;8.00;99.90
19037;DHT22;9651;49.138;8.900;2023-04-08T02:16:53;7.90;99.90
19037;DHT22;9651;49.138;8.900;2023-04-08T02:20:59;7.80;99.90
19037;DHT22;9651;49.138;8.900;2023-04-08T02:25:07;7.70;99.90
19037;DHT22;9651;49.138;8.900;2023-04-08T02:29:13;7.70;99.90
19037;DHT22;9651;49.138;8.900;2023-04-08T02:33:19;7.70;99.90
19037;DHT22;9651;49.138;8.900;2023-04-08T02:37:21;7.70;99.90
19037;DHT22;9651;49.138;8.900;2023-04-08T02:41:27;7.60;99.90
19037;DHT22;9651;49.138;8.900;2023-04-08T02:45:31;7.60;99.90
19037;DHT22;9651;49.138;8.900;2023-04-08T02:49:34;7.70;99.90
19037;DHT22;9651;49.138;8.900;2023-04-08T02:53:36;7.70;99.90
19037;DHT22;9651;49.138;8.900;2023-04-08T02:57:40;7.80;99.90
19037;DHT22;9651;49.138;8.900;2023-04-08T03:01:42;7.80;99.90
19037;DHT22;9651;49.138;8.900;2023-04-08T03:05:46;7.80;99.90
19037;DHT22;9651;49.138;8.900;2023-04-08T03:09:48;7.80;99.90
19037;DHT22;9651;49.138;8.900;2023-04-08T03:13:50;7.80;99.90
19037;DHT22;9651;49.138;8.900;2023-04-08T03:17:52;7.80;99.90
19037;DHT22;9651;49.138;8.900;2023-04-08T03:21:55;7.80;99.90
19037;DHT22;9651;49.138;8.900;2023-04-08T03:25:57;7.80;99.90
19037;DHT22;9651;49.138;8.900;2023-04-08T03:29:59;7.90;99.90
19037;DHT22;9651;49.138;8.900;2023-04-08T03:34:01;7.80;99.90
19037;DHT22;9651;49.138;8.900;2023-04-08T03:38:04;7.80;99.90
19037;DHT22;9651;49.138;8.900;2023-04-08T03:42:06;7.80;99.90
19037;DHT22;9651;49.138;8.900;2023-04-08T03:46:08;7.80;99.90
19037;DHT22;9651;49.138;8.900;2023-04-08T03:50:10;7.70;99.90
19037;DHT22;9651;49.138;8.900;2023-04-08T03:54:14;7.70;99.90
19037;DHT22;9651;49.138;8.900;2023-04-08T03:58:16;7.70;99.90
19037;DHT22;9651;49.138;8.900;2023-04-08T04:02:18;7.60;99.90
19037;DHT22;9651;49.138;8.900;2023-04-08T04:06:20;7.40;99.90
19037;DHT22;9651;49.138;8.900;2023-04-08T04:10:23;7.30;99.90
19037;DHT22;9651;49.138;8.900;2023-04-08T04:14:25;7.20;99.90
19037;DHT22;9651;49.138;8.900;2023-04-08T04:18:27;7.10;99.90
19037;DHT22;9651;49.138;8.900;2023-04-08T04:22:29;7.00;99.90
19037;DHT22;9651;49.138;8.900;2023-04-08T04:26:32;7.00;99.90
19037;DHT22;9651;49.138;8.900;2023-04-08T04:30:35;7.10;99.90
19037;DHT22;9651;49.138;8.900;2023-04-08T04:34:37;7.20;99.90
19037;DHT22;9651;49.138;8.900;2023-04-08T04:38:39;7.20;99.90
19037;DHT22;9651;49.138;8.900;2023-04-08T04:42:43;7.20;99.90
19037;DHT22;9651;49.138;8.900;2023-04-08T04:46:45;7.30;99.90
19037;DHT22;9651;49.138;8.900;2023-04-08T04:50:53;7.30;99.90
19037;DHT22;9651;49.138;8.900;2023-04-08T04:54:56;7.30;99.90
19037;DHT22;9651;49.138;8.900;2023-04-08T04:58:59;7.30;99.90
19037;DHT22;9651;49.138;8.900;2023-04-08T05:03:01;7.30;99.90
19037;DHT22;9651;49.138;8.900;2023-04-08T05:07:03;7.30;99.90
19037;DHT22;9651;49.138;8.900;2023-04-08T05:11:08;7.20;99.90
19037;DHT22;9651;49.138;8.900;2023-04-08T05:15:11;7.20;99.90
19037;DHT22;9651;49.138;8.900;2023-04-08T05:19:13;7.10;99.90
19037;DHT22;9651;49.138;8.900;2023-04-08T05:23:15;7.10;99.90
19037;DHT22;9651;49.138;8.900;2023-04-08T05:27:17;7.10;99.90
19037;DHT22;9651;49.138;8.900;2023-04-08T05:31:22;7.00;99.90
19037;DHT22;9651;49.138;8.900;2023-04-08T05:35:24;7.00;99.90
19037;DHT22;9651;49.138;8.900;2023-04-08T05:39:26;7.00;99.90
19037;DHT22;9651;49.138;8.900;2023-04-08T05:43:28;7.10;99.90
19037;DHT22;9651;49.138;8.900;2023-04-08T05:47:32;7.20;99.90
19037;DHT22;9651;49.138;8.900;2023-04-08T05:51:33;7.30;99.90
19037;DHT22;9651;49.138;8.900;2023-04-08T05:55:35;7.40;99.90
19037;DHT22;9651;49.138;8.900;2023-04-08T05:59:37;7.50;99.90
19037;DHT22;9651;49.138;8.900;2023-04-08T06:03:41;7.60;99.90
19037;DHT22;9651;49.138;8.900;2023-04-08T06:07:43;7.70;99.90
19037;DHT22;9651;49.138;8.900;2023-04-08T06:11:45;7.80;99.90
19037;DHT22;9651;49.138;8.900;2023-04-08T06:15:49;7.90;99.90
19037;DHT22;9651;49.138;8.900;2023-04-08T06:19:52;7.90;99.90
19037;DHT22;9651;49.138;8.900;2023-04-08T06:23:54;8.00;99.90
19037;DHT22;9651;49.138;8.900;2023-04-08T06:27:56;8.20;99.90
19037;DHT22;9651;49.138;8.900;2023-04-08T06:31:58;8.40;99.90
19037;DHT22;9651;49.138;8.900;2023-04-08T06:36:05;8.50;99.90
19037;DHT22;9651;49.138;8.900;2023-04-08T06:40:08;8.70;99.90
19037;DHT22;9651;49.138;8.900;2023-04-08T06:44:10;9.00;99.90
19037;DHT22;9651;49.138;8.900;2023-04-08T06:48:12;9.10;99.90
19037;DHT22;9651;49.138;8.900;2023-04-08T06:52:15;9.30;99.90
19037;DHT22;9651;49.138;8.900;2023-04-08T06:56:17;9.50;99.90
19037;DHT22;9651;49.138;8.900;2023-04-08T07:00:21;9.70;99.90
19037;DHT22;9651;49.138;8.900;2023-04-08T07:04:22;9.70;99.90
19037;DHT22;9651;49.138;8.900;2023-04-08T07:08:26;9.80;99.90
19037;DHT22;9651;49.138;8.900;2023-04-08T07:12:28;10.00;99.90
19037;DHT22;9651;49.138;8.900;2023-04-08T07:16:30;10.20;99.90
19037;DHT22;9651;49.138;8.900;2023-04-08T07:20:32;10.60;99.90
19037;DHT22;9651;49.138;8.900;2023-04-08T07:24:39;11.00;99.90
19037;DHT22;9651;49.138;8.900;2023-04-08T07:28:42;11.50;99.90
19037;DHT22;9651;49.138;8.900;2023-04-08T07:32:44;12.00;99.90
19037;DHT22;9651;49.138;8.900;2023-04-08T07:36:46;12.50;99.90
19037;DHT22;9651;49.138;8.900;2023-04-08T07:40:49;12.70;99.90
19037;DHT22;9651;49.138;8.900;2023-04-08T07:44:51;13.00;99.90
19037;DHT22;9651;49.138;8.900;2023-04-08T07:48:53;13.30;99.90
19037;DHT22;9651;49.138;8.900;2023-04-08T07:52:55;13.80;99.90
19037;DHT22;9651;49.138;8.900;2023-04-08T07:56:59;14.40;99.90
19037;DHT22;9651;49.138;8.900;2023-04-08T08:01:01;15.20;99.90
19037;DHT22;9651;49.138;8.900;2023-04-08T08:05:03;15.90;99.90
19037;DHT22;9651;49.138;8.900;2023-04-08T08:09:06;16.40;99.90
19037;DHT22;9651;49.138;8.900;2023-04-08T08:13:09;16.80;99.90
19037;DHT22;9651;49.138;8.900;2023-04-08T08:17:12;16.80;99.90
19037;DHT22;9651;49.138;8.900;2023-04-08T08:21:14;16.70;99.90
19037;DHT22;9651;49.138;8.900;2023-04-08T08:25:16;16.70;99.90
19037;DHT22;9651;49.138;8.900;2023-04-08T08:29:19;16.80;99.90
19037;DHT22;9651;49.138;8.900;2023-04-08T08:33:21;15.80;99.90
19037;DHT22;9651;49.138;8.900;2023-04-08T08:37:23;16.40;99.90
19037;DHT22;9651;49.138;8.900;2023-04-08T08:41:26;15.90;99.90
19037;DHT22;9651;49.138;8.900;2023-04-08T08:45:49;16.30;99.90
19037;DHT22;9651;49.138;8.900;2023-04-08T08:49:54;17.30;99.90
19037;DHT22;9651;49.138;8.900;2023-04-08T08:54:04;18.10;99.90
19037;DHT22;9651;49.138;8.900;2023-04-08T08:58:30;18.50;99.90
19037;DHT22;9651;49.138;8.900;2023-04-08T09:03:25;18.30;99.90
19037;DHT22;9651;49.138;8.900;2023-04-08T09:07:37;18.70;99.90
19037;DHT22;9651;49.138;8.900;2023-04-08T09:12:07;18.90;99.90
19037;DHT22;9651;49.138;8.900;2023-04-08T09:16:40;18.70;99.90
19037;DHT22;9651;49.138;8.900;2023-04-08T09:21:01;17.80;99.90
19037;DHT22;9651;49.138;8.900;2023-04-08T09:25:43;18.10;99.90
19037;DHT22;9651;49.138;8.900;2023-04-08T09:30:12;18.30;99.90
19037;DHT22;9651;49.138;8.900;2023-04-08T09:34:15;18.50;99.90
19037;DHT22;9651;49.138;8.900;2023-04-08T09:38:21;18.70;99.90
19037;DHT22;9651;49.138;8.900;2023-04-08T09:42:23;18.70;99.90
19037;DHT22;9651;49.138;8.900;2023-04-08T09:46:28;19.20;99.90
19037;DHT22;9651;49.138;8.900;2023-04-08T09:50:38;19.60;99.90
19037;DHT22;9651;49.138;8.900;2023-04-08T09:54:49;19.10;99.40
19037;DHT22;9651;49.138;8.900;2023-04-08T09:58:57;19.00;99.30
19037;DHT22;9651;49.138;8.900;2023-04-08T10:03:08;19.20;98.90
19037;DHT22;9651;49.138;8.900;2023-04-08T10:07:13;19.10;97.70
19037;DHT22;9651;49.138;8.900;2023-04-08T10:11:17;19.10;97.20
19037;DHT22;9651;49.138;8.900;2023-04-08T10:15:26;19.00;97.40
19037;DHT22;9651;49.138;8.900;2023-04-08T10:19:38;18.80;97.20
19037;DHT22;9651;49.138;8.900;2023-04-08T10:23:55;18.50;97.50
19037;DHT22;9651;49.138;8.900;2023-04-08T10:28:01;18.30;96.70
19037;DHT22;9651;49.138;8.900;2023-04-08T10:32:03;18.10;96.50
19037;DHT22;9651;49.138;8.900;2023-04-08T10:36:09;17.80;96.90
19037;DHT22;9651;49.138;8.900;2023-04-08T10:40:18;17.60;97.50
19037;DHT22;9651;49.138;8.900;2023-04-08T10:44:22;17.40;96.80
19037;DHT22;9651;49.138;8.900;2023-04-08T10:48:24;17.30;96.90
19037;DHT22;9651;49.138;8.900;2023-04-08T10:52:28;17.20;96.80
19037;DHT22;9651;49.138;8.900;2023-04-08T10:56:30;17.10;97.20
19037;DHT22;9651;49.138;8.900;2023-04-08T11:00:35;17.00;97.20
19037;DHT22;9651;49.138;8.900;2023-04-08T11:04:40;16.90;97.60
19037;DHT22;9651;49.138;8.900;2023-04-08T11:08:43;16.90;98.20
19037;DHT22;9651;49.138;8.900;2023-04-08T11:12:45;16.90;97.90
19037;DHT22;9651;49.138;8.900;2023-04-08T11:16:56;16.80;98.20
19037;DHT22;9651;49.138;8.900;2023-04-08T11:21:00;16.50;98.40
19037;DHT22;9651;49.138;8.900;2023-04-08T11:25:03;16.20;99.10
19037;DHT22;9651;49.138;8.900;2023-04-08T11:29:09;15.90;99.20
19037;DHT22;9651;49.138;8.900;2023-04-08T11:33:15;15.70;99.10
19037;DHT22;9651;49.138;8.900;2023-04-08T11:37:17;15.40;99.30
19037;DHT22;9651;49.138;8.900;2023-04-08T11:41:19;15.40;99.80
19037;DHT22;9651;49.138;8.900;2023-04-08T11:45:22;15.30;99.90
19037;DHT22;9651;49.138;8.900;2023-04-08T11:49:25;15.20;99.90
19037;DHT22;9651;49.138;8.900;2023-04-08T11:53:27;15.30;99.90
19037;DHT22;9651;49.138;8.900;2023-04-08T11:57:29;15.30;99.90
19037;DHT22;9651;49.138;8.900;2023-04-08T12:01:32;15.30;99.90
19037;DHT22;9651;49.138;8.900;2023-04-08T12:05:35;15.20;99.90
19037;DHT22;9651;49.138;8.900;2023-04-08T12:09:37;15.10;99.90
19037;DHT22;9651;49.138;8.900;2023-04-08T12:13:39;14.90;99.90
19037;DHT22;9651;49.138;8.900;2023-04-08T12:17:41;14.90;99.90
19037;DHT22;9651;49.138;8.900;2023-04-08T12:21:45;14.80;99.90
19037;DHT22;9651;49.138;8.900;2023-04-08T12:25:47;14.80;99.90
19037;DHT22;9651;49.138;8.900;2023-04-08T12:29:49;14.90;99.90
19037;DHT22;9651;49.138;8.900;2023-04-08T12:33:52;15.00;99.90
19037;DHT22;9651;49.138;8.900;2023-04-08T12:37:56;15.10;99.90
19037;DHT22;9651;49.138;8.900;2023-04-08T12:41:58;15.20;99.90
19037;DHT22;9651;49.138;8.900;2023-04-08T12:46:00;15.30;99.90
19037;DHT22;9651;49.138;8.900;2023-04-08T12:50:03;15.40;99.90
19037;DHT22;9651;49.138;8.900;2023-04-08T12:54:08;15.40;99.90
19037;DHT22;9651;49.138;8.900;2023-04-08T12:58:12;15.10;99.90
19037;DHT22;9651;49.138;8.900;2023-04-08T13:02:16;15.20;99.90
19037;DHT22;9651;49.138;8.900;2023-04-08T13:06:18;15.50;99.90
19037;DHT22;9651;49.138;8.900;2023-04-08T13:10:21;15.60;99.90
19037;DHT22;9651;49.138;8.900;2023-04-08T13:14:24;15.80;99.90
19037;DHT22;9651;49.138;8.900;2023-04-08T13:18:27;16.40;99.20
19037;DHT22;9651;49.138;8.900;2023-04-08T13:22:28;17.20;98.20
19037;DHT22;9651;49.138;8.900;2023-04-08T13:26:32;19.90;97.10
19037;DHT22;9651;49.138;8.900;2023-04-08T13:30:34;22.70;91.80
19037;DHT22;9651;49.138;8.900;2023-04-08T13:35:51;22.50;87.70
19037;DHT22;9651;49.138;8.900;2023-04-08T13:39:53;22.00;87.10
19037;DHT22;9651;49.138;8.900;2023-04-08T13:43:56;21.20;86.80
19037;DHT22;9651;49.138;8.900;2023-04-08T13:47:58;20.80;86.60
19037;DHT22;9651;49.138;8.900;2023-04-08T13:52:01;20.60;85.70
19037;DHT22;9651;49.138;8.900;2023-04-08T13:56:04;19.40;85.90
19037;DHT22;9651;49.138;8.900;2023-04-08T14:00:07;19.40;87.20
19037;DHT22;9651;49.138;8.900;2023-04-08T14:04:12;19.00;88.00
19037;DHT22;9651;49.138;8.900;2023-04-08T14:08:16;18.80;88.10
19037;DHT22;9651;49.138;8.900;2023-04-08T14:12:24;18.60;87.70
19037;DHT22;9651;49.138;8.900;2023-04-08T14:16:26;18.80;87.10
19037;DHT22;9651;49.138;8.900;2023-04-08T14:20:30;18.80;87.50
19037;DHT22;9651;49.138;8.900;2023-04-08T14:24:33;18.70;88.10
19037;DHT22;9651;49.138;8.900;2023-04-08T14:28:35;18.60;87.70
19037;DHT22;9651;49.138;8.900;2023-04-08T14:32:37;18.30;88.30
19037;DHT22;9651;49.138;8.900;2023-04-08T14:36:39;17.90;88.50
19037;DHT22;9651;49.138;8.900;2023-04-08T14:40:43;17.60;89.80
19037;DHT22;9651;49.138;8.900;2023-04-08T14:44:45;17.30;90.60
19037;DHT22;9651;49.138;8.900;2023-04-08T14:48:47;16.70;90.60
19037;DHT22;9651;49.138;8.900;2023-04-08T14:52:49;16.10;91.00
19037;DHT22;9651;49.138;8.900;2023-04-08T14:56:52;15.90;92.00
19037;DHT22;9651;49.138;8.900;2023-04-08T15:00:54;15.80;92.80
19037;DHT22;9651;49.138;8.900;2023-04-08T15:04:56;15.60;93.80
19037;DHT22;9651;49.138;8.900;2023-04-08T15:08:58;15.30;94.50
19037;DHT22;9651;49.138;8.900;2023-04-08T15:13:02;15.10;94.80
19037;DHT22;9651;49.138;8.900;2023-04-08T15:17:04;14.90;95.50
19037;DHT22;9651;49.138;8.900;2023-04-08T15:21:06;14.60;95.90
19037;DHT22;9651;49.138;8.900;2023-04-08T15:25:08;14.40;96.50
19037;DHT22;9651;49.138;8.900;2023-04-08T15:29:12;14.30;96.80
19037;DHT22;9651;49.138;8.900;2023-04-08T15:33:14;14.30;97.20
19037;DHT22;9651;49.138;8.900;2023-04-08T15:37:16;14.20;97.90
19037;DHT22;9651;49.138;8.900;2023-04-08T15:41:18;13.90;99.10
19037;DHT22;9651;49.138;8.900;2023-04-08T15:45:22;13.60;99.90
19037;DHT22;9651;49.138;8.900;2023-04-08T15:49:24;13.50;99.90
19037;DHT22;9651;49.138;8.900;2023-04-08T15:53:26;13.40;99.90
19037;DHT22;9651;49.138;8.900;2023-04-08T15:57:28;13.30;99.90
19037;DHT22;9651;49.138;8.900;2023-04-08T16:01:33;13.30;99.90
19037;DHT22;9651;49.138;8.900;2023-04-08T16:05:35;13.40;99.90
19037;DHT22;9651;49.138;8.900;2023-04-08T16:09:39;13.40;99.90
19037;DHT22;9651;49.138;8.900;2023-04-08T16:13:42;13.40;99.90
19037;DHT22;9651;49.138;8.900;2023-04-08T16:17:50;13.40;99.90
19037;DHT22;9651;49.138;8.900;2023-04-08T16:21:52;13.40;99.90
19037;DHT22;9651;49.138;8.900;2023-04-08T16:25:54;13.30;99.90
19037;DHT22;9651;49.138;8.900;2023-04-08T16:29:56;13.20;99.90
19037;DHT22;9651;49.138;8.900;2023-04-08T16:34:00;13.10;99.90
19037;DHT22;9651;49.138;8.900;2023-04-08T16:38:02;12.90;99.90
19037;DHT22;9651;49.138;8.900;2023-04-08T16:42:06;12.70;99.90
19037;DHT22;9651;49.138;8.900;2023-04-08T16:46:09;12.70;99.90
19037;DHT22;9651;49.138;8.900;2023-04-08T16:50:14;12.70;99.90
19037;DHT22;9651;49.138;8.900;2023-04-08T16:54:16;12.70;99.90
19037;DHT22;9651;49.138;8.900;2023-04-08T16:58:18;12.60;99.90
19037;DHT22;9651;49.138;8.900;2023-04-08T17:02:20;12.60;99.90
19037;DHT22;9651;49.138;8.900;2023-04-08T17:06:24;12.60;99.90
19037;DHT22;9651;49.138;8.900;2023-04-08T17:10:26;12.50;99.90
19037;DHT22;9651;49.138;8.900;2023-04-08T17:14:28;12.40;99.90
19037;DHT22;9651;49.138;8.900;2023-04-08T17:18:31;12.30;99.90
19037;DHT22;9651;49.138;8.900;2023-04-08T17:22:34;12.30;99.90
19037;DHT22;9651;49.138;8.900;2023-04-08T17:26:36;12.30;99.90
19037;DHT22;9651;49.138;8.900;2023-04-08T17:30:41;12.30;99.90
19037;DHT22;9651;49.138;8.900;2023-04-08T17:34:44;12.30;99.90
19037;DHT22;9651;49.138;8.900;2023-04-08T17:38:47;12.30;99.90
19037;DHT22;9651;49.138;8.900;2023-04-08T17:42:49;12.20;99.90
19037;DHT22;9651;49.138;8.900;2023-04-08T17:46:51;12.20;99.90
19037;DHT22;9651;49.138;8.900;2023-04-08T17:50:58;12.10;99.90
19037;DHT22;9651;49.138;8.900;2023-04-08T17:55:02;12.10;99.90
19037;DHT22;9651;49.138;8.900;2023-04-08T17:59:04;12.10;99.90
19037;DHT22;9651;49.138;8.900;2023-04-08T18:03:06;12.00;99.90
19037;DHT22;9651;49.138;8.900;2023-04-08T18:07:09;12.00;99.90
19037;DHT22;9651;49.138;8.900;2023-04-08T18:11:12;11.90;99.90
19037;DHT22;9651;49.138;8.900;2023-04-08T18:15:14;11.90;99.90
19037;DHT22;9651;49.138;8.900;2023-04-08T18:19:16;11.80;99.90
19037;DHT22;9651;49.138;8.900;2023-04-08T18:23:18;11.80;99.90
19037;DHT22;9651;49.138;8.900;2023-04-08T18:27:21;11.80;99.90
19037;DHT22;9651;49.138;8.900;2023-04-08T18:31:23;11.80;99.90
19037;DHT22;9651;49.138;8.900;2023-04-08T18:35:26;11.80;99.90
19037;DHT22;9651;49.138;8.900;2023-04-08T18:39:27;11.80;99.90
19037;DHT22;9651;49.138;8.900;2023-04-08T18:43:31;11.80;99.90
19037;DHT22;9651;49.138;8.900;2023-04-08T18:47:33;11.80;99.90
19037;DHT22;9651;49.138;8.900;2023-04-08T18:51:35;11.70;99.90
19037;DHT22;9651;49.138;8.900;2023-04-08T18:55:38;11.60;99.90
19037;DHT22;9651;49.138;8.900;2023-04-08T18:59:45;11.60;99.90
19037;DHT22;9651;49.138;8.900;2023-04-08T19:03:47;11.60;99.90
19037;DHT22;9651;49.138;8.900;2023-04-08T19:07:49;11.60;99.90
19037;DHT22;9651;49.138;8.900;2023-04-08T19:11:52;11.50;99.90
19037;DHT22;9651;49.138;8.900;2023-04-08T19:15:55;11.50;99.90
19037;DHT22;9651;49.138;8.900;2023-04-08T19:19:58;11.40;99.90
19037;DHT22;9651;49.138;8.900;2023-04-08T19:24:00;11.30;99.90
19037;DHT22;9651;49.138;8.900;2023-04-08T19:28:04;11.30;99.90
19037;DHT22;9651;49.138;8.900;2023-04-08T19:32:09;11.30;99.90
19037;DHT22;9651;49.138;8.900;2023-04-08T19:36:12;11.30;99.90
19037;DHT22;9651;49.138;8.900;2023-04-08T19:40:14;11.30;99.90
19037;DHT22;9651;49.138;8.900;2023-04-08T19:44:15;11.20;99.90
19037;DHT22;9651;49.138;8.900;2023-04-08T19:48:19;11.20;99.90
19037;DHT22;9651;49.138;8.900;2023-04-08T19:52:21;11.20;99.90
19037;DHT22;9651;49.138;8.900;2023-04-08T19:56:23;11.20;99.90
19037;DHT22;9651;49.138;8.900;2023-04-08T20:00:27;11.20;99.90
19037;DHT22;9651;49.138;8.900;2023-04-08T20:04:30;11.00;99.90
19037;DHT22;9651;49.138;8.900;2023-04-08T20:08:32;11.00;99.90
19037;DHT22;9651;49.138;8.900;2023-04-08T20:12:35;11.00;99.90
19037;DHT22;9651;49.138;8.900;2023-04-08T20:16:37;11.00;99.90
19037;DHT22;9651;49.138;8.900;2023-04-08T20:20:40;11.00;99.90
19037;DHT22;9651;49.138;8.900;2023-04-08T20:24:43;11.00;99.90
19037;DHT22;9651;49.138;8.900;2023-04-08T20:28:45;10.90;99.90
19037;DHT22;9651;49.138;8.900;2023-04-08T20:32:47;10.90;99.90
19037;DHT22;9651;49.138;8.900;2023-04-08T20:36:57;10.90;99.90
19037;DHT22;9651;49.138;8.900;2023-04-08T20:40:59;10.80;99.90
19037;DHT22;9651;49.138;8.900;2023-04-08T20:45:06;10.80;99.90
19037;DHT22;9651;49.138;8.900;2023-04-08T20:49:09;10.80;99.90
19037;DHT22;9651;49.138;8.900;2023-04-08T20:53:12;10.70;99.90
19037;DHT22;9651;49.138;8.900;2023-04-08T20:57:14;10.70;99.90
19037;DHT22;9651;49.138;8.900;2023-04-08T21:01:16;10.70;99.90
19037;DHT22;9651;49.138;8.900;2023-04-08T21:05:18;10.50;99.90
19037;DHT22;9651;49.138;8.900;2023-04-08T21:09:21;10.50;99.90
19037;DHT22;9651;49.138;8.900;2023-04-08T21:13:23;10.50;99.90
19037;DHT22;9651;49.138;8.900;2023-04-08T21:17:25;10.50;99.90
19037;DHT22;9651;49.138;8.900;2023-04-08T21:21:30;10.50;99.90
19037;DHT22;9651;49.138;8.900;2023-04-08T21:25:33;10.50;99.90
19037;DHT22;9651;49.138;8.900;2023-04-08T21:29:35;10.40;99.90
19037;DHT22;9651;49.138;8.900;2023-04-08T21:33:37;10.40;99.90
19037;DHT22;9651;49.138;8.900;2023-04-08T21:37:39;10.40;99.90
19037;DHT22;9651;49.138;8.900;2023-04-08T21:41:42;10.40;99.90
19037;DHT22;9651;49.138;8.900;2023-04-08T21:45:44;10.40;99.90
19037;DHT22;9651;49.138;8.900;2023-04-08T21:49:46;10.40;99.90
19037;DHT22;9651;49.138;8.900;2023-04-08T21:53:49;10.30;99.90
19037;DHT22;9651;49.138;8.900;2023-04-08T21:57:53;10.30;99.90
19037;DHT22;9651;49.138;8.900;2023-04-08T22:01:55;10.20;99.90
19037;DHT22;9651;49.138;8.900;2023-04-08T22:05:57;10.10;99.90
19037;DHT22;9651;49.138;8.900;2023-04-08T22:09:59;10.10;99.90
19037;DHT22;9651;49.138;8.900;2023-04-08T22:14:02;9.90;99.90
19037;DHT22;9651;49.138;8.900;2023-04-08T22:18:04;10.00;99.90
19037;DHT22;9651;49.138;8.900;2023-04-08T22:22:06;10.00;99.90
19037;DHT22;9651;49.138;8.900;2023-04-08T22:26:08;10.00;99.90
19037;DHT22;9651;49.138;8.900;2023-04-08T22:30:12;9.90;99.90
19037;DHT22;9651;49.138;8.900;2023-04-08T22:34:14;9.80;99.90
19037;DHT22;9651;49.138;8.900;2023-04-08T22:38:15;9.80;99.90
19037;DHT22;9651;49.138;8.900;2023-04-08T22:42:17;9.70;99.90
19037;DHT22;9651;49.138;8.900;2023-04-08T22:46:21;9.80;99.90
19037;DHT22;9651;49.138;8.900;2023-04-08T22:50:23;9.70;99.90
19037;DHT22;9651;49.138;8.900;2023-04-08T22:54:25;9.70;99.90
19037;DHT22;9651;49.138;8.900;2023-04-08T22:58:27;9.60;99.90
19037;DHT22;9651;49.138;8.900;2023-04-08T23:02:31;9.60;99.90
19037;DHT22;9651;49.138;8.900;2023-04-08T23:06:32;9.60;99.90
19037;DHT22;9651;49.138;8.900;2023-04-08T23:10:35;9.60;99.90
19037;DHT22;9651;49.138;8.900;2023-04-08T23:14:36;9.50;99.90
19037;DHT22;9651;49.138;8.900;2023-04-08T23:18:40;9.50;99.90
19037;DHT22;9651;49.138;8.900;2023-04-08T23:22:42;9.50;99.90
19037;DHT22;9651;49.138;8.900;2023-04-08T23:26:43;9.40;99.90
19037;DHT22;9651;49.138;8.900;2023-04-08T23:30:45;9.30;99.90
19037;DHT22;9651;49.138;8.900;2023-04-08T23:34:49;9.30;99.90
19037;DHT22;9651;49.138;8.900;2023-04-08T23:38:51;9.20;99.90
19037;DHT22;9651;49.138;8.900;2023-04-08T23:42:53;9.20;99.90
19037;DHT22;9651;49.138;8.900;2023-04-08T23:46:54;9.10;99.90
19037;DHT22;9651;49.138;8.900;2023-04-08T23:50:58;9.10;99.90
19037;DHT22;9651;49.138;8.900;2023-04-08T23:55:00;9.10;99.90
19037;DHT22;9651;49.138;8.900;2023-04-08T23:59:02;9.10;99.90
